Time;durP1;ratioP1;P1;durP2;ratioP2;P2;SDS_P1;SDS_P2;PMS_P1;PMS_P2;Temp;Humidity;BMP_temperature;BMP_pressure;BME280_temperature;BME280_humidity;BME280_pressure;Samples;Min_cycle;Max_cycle;Signal;HPM_P1;HPM_P2
2022/08/08 00:02:04;;;;;;;;;;;17.80;99.90;;;16.73;84.77;96046.03;10358323;28;2189;-62
2022/08/08 00:07:28;;;;;;;;;;;17.80;99.90;;;16.74;83.53;96042.22;10364423;28;1922;-62
2022/08/08 00:12:31;;;;;;;;;;;17.80;99.90;;;16.70;83.67;96040.41;10356250;28;2198;-63
2022/08/08 00:17:36;;;;;;;;;;;17.70;99.90;;;16.55;84.78;96032.59;10375755;28;2222;-64
2022/08/08 00:23:00;;;;;;;;;;;;;;;16.51;84.57;96034.28;10361755;28;1857;-63
2022/08/08 00:28:07;;;;;;;;;;;17.50;99.90;;;16.57;84.10;96031.16;10360905;28;1877;-63
2022/08/08 00:33:30;;;;;;;;;;;17.50;99.90;;;16.46;85.04;96029.78;10364227;28;2002;-63
2022/08/08 00:38:53;;;;;;;;;;;17.60;99.90;;;16.39;86.50;96040.25;10358207;28;1982;-63
2022/08/08 00:43:57;;;;;;;;;;;17.30;99.90;;;16.35;87.74;96033.81;10360986;28;1852;-63
2022/08/08 00:49:02;;;;;;;;;;;17.40;99.90;;;16.31;89.21;96027.41;10382150;28;1928;-62
2022/08/08 00:54:23;;;;;;;;;;;17.30;99.90;;;16.18;89.78;96027.13;10372318;28;1958;-63
2022/08/08 00:59:31;;;;;;;;;;;17.60;99.90;;;16.17;90.69;96032.84;10360287;28;1947;-64
2022/08/08 01:04:48;;;;;;;;;;;17.10;99.90;;;16.06;91.82;96042.28;10376640;28;1984;-64
2022/08/08 01:09:51;;;;;;;;;;;17.10;99.90;;;16.01;93.33;96045.88;10375931;28;1989;-62
2022/08/08 01:14:56;;;;;;;;;;;17.00;99.90;;;16.13;91.77;96038.06;10354576;28;2028;-63
2022/08/08 01:20:02;;;;;;;;;;;17.00;99.90;;;16.09;92.83;96037.03;10373655;28;1979;-63
2022/08/08 01:25:11;;;;;;;;;;;17.10;99.90;;;16.01;93.08;96034.25;10371926;28;2003;-62
2022/08/08 01:30:18;;;;;;;;;;;17.00;99.90;;;15.97;93.84;96034.06;10355348;28;2024;-64
2022/08/08 01:35:25;;;;;;;;;;;17.00;99.90;;;15.94;94.51;96038.16;10354009;28;2004;-63
2022/08/08 01:40:32;;;;;;;;;;;16.90;99.90;;;15.95;94.87;96037.06;10375904;28;1927;-63
2022/08/08 01:45:37;;;;;;;;;;;16.90;99.90;;;15.88;95.30;96038.56;10358201;28;2850;-63
2022/08/08 01:50:40;;;;;;;;;;;16.90;99.90;;;15.84;96.24;96040.25;10357977;28;2113;-63
2022/08/08 01:55:45;;;;;;;;;;;16.80;99.90;;;15.85;95.25;96039.19;10356814;28;2371;-63
2022/08/08 02:01:08;;;;;;;;;;;16.70;99.90;;;15.80;94.96;96044.69;10359445;28;2138;-64
2022/08/08 02:06:18;;;;;;;;;;;16.70;99.90;;;15.70;95.51;96039.44;10356011;28;2008;-63
2022/08/08 02:11:38;;;;;;;;;;;;;;;15.67;95.23;96054.41;10355050;28;1996;-62
2022/08/08 02:17:03;;;;;;;;;;;;;;;15.72;94.86;96048.09;10370703;28;2004;-62
2022/08/08 02:22:33;;;;;;;;;;;16.60;99.90;;;15.65;95.28;96060.13;10371815;28;1940;-62
2022/08/08 02:27:56;;;;;;;;;;;16.60;99.90;;;15.55;96.32;96054.84;10355832;28;1968;-64
2022/08/08 02:33:03;;;;;;;;;;;;;;;15.50;97.23;96054.94;10373674;28;1963;-63
2022/08/08 02:38:08;;;;;;;;;;;;;;;15.51;96.75;96059.25;10356480;28;1861;-62
2022/08/08 02:43:14;;;;;;;;;;;;;;;15.46;97.33;96064.78;10376102;28;1984;-63
2022/08/08 02:48:38;;;;;;;;;;;;;;;15.37;97.48;96071.97;10370190;28;1990;-62
2022/08/08 02:53:44;;;;;;;;;;;;;;;15.37;96.71;96077.38;10372442;28;1973;-63
2022/08/08 02:58:52;;;;;;;;;;;;;;;15.23;97.97;96071.13;10370598;28;2155;-63
2022/08/08 03:03:56;;;;;;;;;;;16.20;99.90;;;15.23;97.90;96063.00;10358821;28;2037;-62
2022/08/08 03:09:19;;;;;;;;;;;16.20;99.90;;;15.22;98.18;96069.50;10365615;28;1983;-63
2022/08/08 03:14:23;;;;;;;;;;;16.20;99.90;;;15.09;98.69;96068.38;10377392;28;1979;-62
2022/08/08 03:19:46;;;;;;;;;;;16.10;99.90;;;15.09;98.74;96074.59;10374539;28;1979;-62
2022/08/08 03:24:53;;;;;;;;;;;16.10;99.90;;;15.06;99.67;96067.03;10360689;28;2010;-62
2022/08/08 03:30:00;;;;;;;;;;;16.10;99.90;;;14.97;100.00;96065.31;10354388;28;1973;-62
2022/08/08 03:35:03;;;;;;;;;;;16.00;99.90;;;14.99;100.00;96063.91;10367109;28;1918;-64
2022/08/08 03:40:11;;;;;;;;;;;16.00;99.90;;;14.89;100.00;96066.78;10353496;28;1909;-62
2022/08/08 03:45:32;;;;;;;;;;;15.90;99.90;;;14.82;100.00;96075.28;10373582;28;1992;-64
2022/08/08 03:50:55;;;;;;;;;;;;;;;14.83;100.00;96081.47;10350587;28;2632;-63
2022/08/08 03:56:00;;;;;;;;;;;;;;;14.88;100.00;96084.09;10373280;28;2058;-63
2022/08/08 04:01:11;;;;;;;;;;;;;;;14.67;100.00;96080.06;10349568;28;1858;-63
2022/08/08 04:06:28;;;;;;;;;;;;;;;14.67;100.00;96082.78;10348019;28;2085;-64
2022/08/08 04:11:32;;;;;;;;;;;;;;;14.65;100.00;96082.28;10366684;28;1919;-63
2022/08/08 04:16:58;;;;;;;;;;;;;;;14.69;100.00;96083.28;10356422;28;1830;-63
2022/08/08 04:22:21;;;;;;;;;;;15.50;99.90;;;14.78;100.00;96095.09;10365589;28;1876;-63
2022/08/08 04:27:46;;;;;;;;;;;15.60;99.90;;;14.87;100.00;96101.44;10373000;28;1839;-62
2022/08/08 04:33:29;;;;;;;;;;;15.70;99.90;;;14.97;100.00;96104.00;10371461;28;1902;-63
2022/08/08 04:39:03;;;;;;;;;;;15.90;99.90;;;14.92;100.00;96106.78;10365043;28;2022;-63
2022/08/08 04:44:46;;;;;;;;;;;15.80;99.90;;;15.17;100.00;96119.13;10368318;28;1939;-63
2022/08/08 04:50:09;;;;;;;;;;;15.90;99.90;;;15.48;100.00;96116.75;10373611;28;2014;-64
2022/08/08 04:55:46;;;;;;;;;;;16.20;99.90;;;15.24;100.00;96122.28;10372624;28;2010;-62
2022/08/08 05:01:18;;;;;;;;;;;16.20;99.90;;;15.30;100.00;96128.41;10374608;28;1978;-63
2022/08/08 05:06:41;;;;;;;;;;;16.20;99.90;;;15.20;100.00;96131.28;10370872;28;1911;-62
2022/08/08 05:11:44;;;;;;;;;;;16.10;99.90;;;15.31;100.00;96138.16;10367511;28;2264;-62
2022/08/08 05:16:58;;;;;;;;;;;16.10;99.90;;;15.74;100.00;96135.31;10343494;28;2070;-62
2022/08/08 05:22:03;;;;;;;;;;;16.30;99.90;;;16.00;100.00;96136.47;10367808;28;1988;-62
2022/08/08 05:27:08;;;;;;;;;;;16.60;99.90;;;16.48;96.20;96147.78;10358054;28;1941;-65
2022/08/08 05:32:11;;;;;;;;;;;17.10;99.90;;;16.97;93.71;96140.78;10361201;28;2115;-63
2022/08/08 05:37:14;;;;;;;;;;;17.20;99.90;;;17.32;89.88;96137.59;10365968;28;2027;-64
2022/08/08 05:42:20;;;;;;;;;;;17.80;99.90;;;17.21;88.11;96145.97;10375591;28;1826;-65
2022/08/08 05:47:31;;;;;;;;;;;18.00;99.90;;;17.41;87.05;96141.16;10361793;28;1862;-63
2022/08/08 05:52:54;;;;;;;;;;;18.10;99.90;;;17.65;85.08;96138.16;10374981;28;2010;-63
2022/08/08 05:57:58;;;;;;;;;;;18.30;99.90;;;17.90;83.63;96142.19;10355597;28;1832;-62
2022/08/08 06:03:11;;;;;;;;;;;18.50;99.90;;;18.22;82.57;96143.78;10357259;28;2026;-62
2022/08/08 06:08:27;;;;;;;;;;;18.90;99.90;;;18.47;80.67;96151.25;10381255;28;1982;-62
2022/08/08 06:13:36;;;;;;;;;;;19.00;99.90;;;18.42;79.41;96158.75;10379340;28;2024;-63
2022/08/08 06:18:50;;;;;;;;;;;19.10;99.90;;;19.09;79.00;96158.50;10364909;28;1905;-63
2022/08/08 06:23:56;;;;;;;;;;;19.50;99.90;;;19.27;75.78;96157.38;10355143;28;2027;-63
2022/08/08 06:29:08;;;;;;;;;;;19.80;99.90;;;19.49;75.87;96163.81;10373261;28;2007;-63
2022/08/08 06:34:31;;;;;;;;;;;20.00;99.90;;;18.91;74.95;96165.84;10359993;28;1918;-64
2022/08/08 06:39:33;;;;;;;;;;;19.90;99.90;;;19.57;72.35;96168.47;10370252;28;1903;-62
2022/08/08 06:44:57;;;;;;;;;;;20.00;99.90;;;20.06;69.91;96166.34;10359480;28;1836;-63
2022/08/08 06:50:01;;;;;;;;;;;20.50;99.90;;;19.82;70.11;96172.31;10374196;28;1869;-66
2022/08/08 06:55:06;;;;;;;;;;;20.50;99.90;;;20.13;69.62;96178.38;10355449;28;2017;-63
2022/08/08 07:00:10;;;;;;;;;;;20.60;99.90;;;19.99;69.52;96180.50;10348270;28;1906;-63
2022/08/08 07:05:15;;;;;;;;;;;20.70;99.90;;;20.54;67.92;96178.91;10375377;28;1777;-63
2022/08/08 07:10:22;;;;;;;;;;;21.00;99.90;;;21.23;65.64;96184.00;10372180;28;1891;-63
2022/08/08 07:15:25;;;;;;;;;;;21.50;99.90;;;20.42;68.30;96185.84;10355062;28;1914;-68
2022/08/08 07:20:49;;;;;;;;;;;21.50;99.90;;;20.75;67.44;96185.25;10373258;28;1852;-63
2022/08/08 07:25:54;;;;;;;;;;;21.40;99.90;;;20.44;66.48;96191.78;10367453;28;1828;-63
2022/08/08 07:30:58;;;;;;;;;;;21.50;99.90;;;20.80;65.51;96195.97;10369282;28;1804;-64
2022/08/08 07:36:04;;;;;;;;;;;21.60;99.90;;;21.52;62.65;96194.94;10376075;28;1987;-64
2022/08/08 07:41:10;;;;;;;;;;;22.00;99.90;;;21.12;62.74;96201.91;10353021;28;2010;-63
2022/08/08 07:46:27;;;;;;;;;;;22.00;99.90;;;21.28;61.67;96209.25;10353411;28;2061;-64
2022/08/08 07:51:33;;;;;;;;;;;22.10;99.90;;;21.70;59.75;96200.28;10373576;28;1965;-64
2022/08/08 07:56:58;;;;;;;;;;;22.30;99.90;;;20.81;61.48;96205.81;10358857;28;2847;-63
2022/08/08 08:02:03;;;;;;;;;;;22.00;99.90;;;20.76;61.86;96200.53;10370749;28;1912;-64
2022/08/08 08:07:26;;;;;;;;;;;21.90;99.90;;;21.12;60.63;96202.75;10370280;28;1852;-64
2022/08/08 08:12:40;;;;;;;;;;;21.90;99.90;;;21.30;58.68;96209.72;10368394;28;1989;-63
2022/08/08 08:17:45;;;;;;;;;;;22.30;99.90;;;21.35;58.55;96216.13;10351273;28;2062;-63
2022/08/08 08:22:56;;;;;;;;;;;22.30;99.90;;;21.81;58.38;96209.66;10351874;28;1821;-63
2022/08/08 08:27:59;;;;;;;;;;;22.20;99.90;;;21.71;57.10;96216.34;10386010;28;1971;-62
2022/08/08 08:33:04;;;;;;;;;;;22.60;99.90;;;21.86;60.03;96209.47;10372883;28;2064;-63
2022/08/08 08:38:13;;;;;;;;;;;;;;;22.26;56.64;96211.69;10385910;28;2198;-63
2022/08/08 08:43:20;;;;;;;;;;;22.90;99.90;;;22.38;55.84;96209.00;10360316;28;2203;-63
2022/08/08 08:48:30;;;;;;;;;;;23.20;99.90;;;21.74;58.77;96212.13;10355985;28;1880;-65
2022/08/08 08:53:34;;;;;;;;;;;;;;;22.22;55.51;96217.06;10361457;28;2007;-62
2022/08/08 08:58:57;;;;;;;;;;;23.10;99.90;;;21.86;55.85;96214.94;10379753;28;1862;-63
2022/08/08 09:04:02;;;;;;;;;;;22.90;99.90;;;22.29;53.42;96228.25;10370531;28;1847;-63
2022/08/08 09:09:05;;;;;;;;;;;23.00;99.90;;;22.51;50.89;96220.78;10378899;28;1898;-63
2022/08/08 09:14:09;;;;;;;;;;;23.30;99.90;;;22.64;51.86;96214.16;10376033;28;1972;-68
2022/08/08 09:19:12;;;;;;;;;;;23.40;99.90;;;22.53;53.39;96211.09;10373674;28;1867;-68
2022/08/08 09:24:15;;;;;;;;;;;;;;;22.72;51.15;96204.28;10353212;28;2171;-64
2022/08/08 09:29:22;;;;;;;;;;;;;;;23.22;47.60;96214.09;10378069;28;1768;-64
2022/08/08 09:34:26;;;;;;;;;;;23.80;99.90;;;22.48;49.90;96224.19;10377406;28;1922;-63
2022/08/08 09:39:40;;;;;;;;;;;23.50;99.90;;;21.65;50.31;96236.84;10350756;28;1887;-64
2022/08/08 09:44:44;;;;;;;;;;;22.90;99.90;;;22.09;49.81;96229.91;10367547;28;1936;-64
2022/08/08 09:49:49;;;;;;;;;;;22.90;99.90;;;22.32;50.40;96218.56;10363402;28;1823;-64
2022/08/08 09:54:53;;;;;;;;;;;23.10;99.90;;;22.88;49.16;96216.19;10375497;28;1983;-63
2022/08/08 09:59:56;;;;;;;;;;;23.40;99.90;;;22.84;48.81;96207.00;10357005;28;1852;-64
2022/08/08 10:05:18;;;;;;;;;;;23.70;99.90;;;23.15;50.37;96210.00;10358704;28;1889;-63
2022/08/08 10:10:27;;;;;;;;;;;23.70;99.90;;;22.88;48.42;96213.44;10356385;28;1997;-63
2022/08/08 10:15:33;;;;;;;;;;;23.90;99.90;;;22.74;49.90;96205.53;10373778;28;1911;-64
2022/08/08 10:20:36;;;;;;;;;;;23.70;99.90;;;23.03;48.74;96204.53;10372546;28;1874;-64
2022/08/08 10:25:47;;;;;;;;;;;;;;;23.34;47.86;96211.34;10357035;28;1969;-65
2022/08/08 10:30:58;;;;;;;;;;;24.30;99.90;;;23.44;47.28;96199.91;10354374;28;1801;-63
2022/08/08 10:36:03;;;;;;;;;;;24.20;99.90;;;23.49;47.67;96201.63;10358261;28;1926;-63
2022/08/08 10:41:24;;;;;;;;;;;24.20;99.90;;;23.07;48.34;96202.69;10372586;28;1895;-63
2022/08/08 10:46:37;;;;;;;;;;;24.10;99.90;;;22.56;49.58;96206.84;10360229;28;1912;-66
2022/08/08 10:51:40;;;;;;;;;;;23.70;99.90;;;23.06;48.23;96195.63;10352846;28;1881;-67
2022/08/08 10:56:53;;;;;;;;;;;23.70;99.90;;;23.63;47.86;96197.38;10383856;28;1921;-62
2022/08/08 11:01:56;;;;;;;;;;;24.20;99.90;;;23.18;48.35;96206.59;10371323;28;1860;-64
2022/08/08 11:07:02;;;;;;;;;;;;;;;23.51;47.95;96202.06;10380690;28;1831;-63
2022/08/08 11:12:06;;;;;;;;;;;;;;;24.05;44.33;96199.78;10368672;28;1943;-64
2022/08/08 11:17:16;;;;;;;;;;;;;;;25.38;42.21;96196.47;10367633;28;1781;-65
2022/08/08 11:22:40;;;;;;;;;;;;;;;23.61;46.15;96198.88;10369434;28;1833;-64
2022/08/08 11:27:45;;;;;;;;;;;;;;;23.75;45.79;96199.31;10357390;28;2003;-63
2022/08/08 11:32:50;;;;;;;;;;;;;;;23.69;45.73;96192.47;10362518;28;1903;-63
2022/08/08 11:37:56;;;;;;;;;;;;;;;23.87;44.89;96184.75;10354878;28;1876;-64
2022/08/08 11:43:19;;;;;;;;;;;;;;;23.70;44.59;96192.09;10370073;28;1839;-63
2022/08/08 11:48:26;;;;;;;;;;;;;;;23.59;44.15;96193.69;10367238;28;1892;-64
2022/08/08 11:53:30;;;;;;;;;;;;;;;23.62;43.07;96190.31;10357971;28;1914;-64
2022/08/08 11:58:45;;;;;;;;;;;;;;;23.52;44.16;96181.72;10345034;28;2548;-65
2022/08/08 12:03:54;;;;;;;;;;;;;;;23.63;44.66;96178.19;10373607;28;1887;-63
2022/08/08 12:09:01;;;;;;;;;;;;;;;23.82;44.00;96177.53;10362870;28;2658;-67
2022/08/08 12:14:05;;;;;;;;;;;;;;;23.62;43.76;96165.63;10380760;28;1975;-64
2022/08/08 12:19:14;;;;;;;;;;;;;;;23.78;43.37;96164.84;10379974;28;1822;-64
2022/08/08 12:24:22;;;;;;;;;;;;;;;23.34;43.62;96161.97;10360958;28;2202;-63
2022/08/08 12:29:30;;;;;;;;;;;;;;;23.91;43.17;96163.66;10380342;28;1831;-64
2022/08/08 12:34:44;;;;;;;;;;;;;;;24.37;42.32;96164.16;10375278;28;1985;-63
2022/08/08 12:39:50;;;;;;;;;;;;;;;24.08;43.26;96159.81;10381991;28;1922;-65
2022/08/08 12:45:04;;;;;;;;;;;;;;;24.65;41.59;96164.06;10357128;28;1840;-66
2022/08/08 12:50:27;;;;;;;;;;;;;;;24.55;41.80;96162.63;10379414;28;1912;-64
2022/08/08 12:55:31;;;;;;;;;;;;;;;24.04;42.20;96162.44;10364189;28;1989;-65
2022/08/08 13:00:54;;;;;;;;;;;;;;;24.09;42.21;96153.16;10375976;28;1828;-68
2022/08/08 13:05:57;;;;;;;;;;;;;;;24.35;41.54;96158.19;10370121;28;1918;-67
2022/08/08 13:11:09;;;;;;;;;;;;;;;24.57;41.67;96159.56;10376127;28;1816;-64
2022/08/08 13:16:13;;;;;;;;;;;;;;;24.81;40.18;96153.84;10381892;28;1930;-67
2022/08/08 13:21:17;;;;;;;;;;;;;;;24.66;39.77;96143.69;10367355;28;1963;-64
2022/08/08 13:26:25;;;;;;;;;;;;;;;24.31;40.46;96138.88;10375629;28;1946;-62
2022/08/08 13:31:29;;;;;;;;;;;;;;;24.72;39.20;96132.06;10371122;28;1733;-63
2022/08/08 13:36:33;;;;;;;;;;;;;;;24.60;37.94;96134.91;10375845;28;1902;-63
2022/08/08 13:41:37;;;;;;;;;;;;;;;24.75;38.28;96122.31;10362437;28;1856;-64
2022/08/08 13:46:56;;;;;;;;;;;;;;;24.60;39.32;96117.63;10362416;28;1929;-63
2022/08/08 13:52:00;;;;;;;;;;;;;;;24.74;39.26;96116.00;10371403;28;1804;-64
2022/08/08 13:57:04;;;;;;;;;;;;;;;24.74;39.55;96118.75;10379275;28;1992;-63
2022/08/08 14:02:13;;;;;;;;;;;;;;;25.00;38.66;96117.38;10361901;28;1808;-66
2022/08/08 14:07:23;;;;;;;;;;;;;;;25.05;38.16;96122.63;10379168;28;2217;-65
2022/08/08 14:12:32;;;;;;;;;;;;;;;25.04;38.42;96119.09;10374626;28;1800;-64
2022/08/08 14:17:36;;;;;;;;;;;;;;;25.19;39.14;96116.66;10358937;28;1910;-64
2022/08/08 14:22:59;;;;;;;;;;;;;;;25.27;37.03;96113.72;10344787;28;1911;-64
2022/08/08 14:28:12;;;;;;;;;;;;;;;25.23;36.96;96112.81;10378887;28;1916;-64
2022/08/08 14:33:15;;;;;;;;;;;;;;;24.99;37.52;96113.03;10371798;28;1898;-63
2022/08/08 14:38:27;;;;;;;;;;;;;;;24.98;37.91;96105.94;10361975;28;1912;-65
2022/08/08 14:43:51;;;;;;;;;;;;;;;25.09;37.06;96107.03;10351316;28;2143;-63
2022/08/08 14:49:15;;;;;;;;;;;;;;;24.91;38.04;96116.78;10357923;28;1787;-64
2022/08/08 14:54:34;;;;;;;;;;;;;;;25.13;37.20;96118.91;10375254;28;1906;-64
2022/08/08 14:59:38;;;;;;;;;;;;;;;25.20;37.85;96116.31;10356034;28;1904;-64
2022/08/08 15:04:53;;;;;;;;;;;;;;;25.55;36.96;96113.50;10371997;28;1840;-63
2022/08/08 15:09:56;;;;;;;;;;;;;;;25.38;37.55;96118.63;10377970;28;1804;-64
2022/08/08 15:15:00;;;;;;;;;;;;;;;25.51;36.59;96122.84;10369451;28;2256;-64
2022/08/08 15:20:11;;;;;;;;;;;;;;;25.83;35.34;96118.84;10354316;28;1856;-63
2022/08/08 15:25:16;;;;;;;;;;;;;;;25.40;36.76;96121.84;10350720;28;1826;-67
2022/08/08 15:30:32;;;;;;;;;;;;;;;24.95;37.67;96123.19;10356361;28;1817;-71
2022/08/08 15:35:36;;;;;;;;;;;25.90;99.90;;;25.13;37.95;96118.91;10349072;28;1922;-68
2022/08/08 15:40:40;;;;;;;;;;;26.00;99.90;;;24.97;38.68;96115.34;10333006;28;1776;-70
2022/08/08 15:45:47;;;;;;;;;;;25.80;99.90;;;24.50;39.47;96129.94;10363409;28;1828;-70
2022/08/08 15:51:03;;;;;;;;;;;25.60;99.90;;;24.56;39.57;96122.22;10346004;28;1859;-69
2022/08/08 15:56:08;;;;;;;;;;;25.40;99.90;;;24.35;39.39;96125.22;10337534;28;2888;-69
2022/08/08 16:01:14;;;;;;;;;;;25.40;99.90;;;24.31;39.01;96116.88;10366588;28;1799;-70
2022/08/08 16:06:17;;;;;;;;;;;25.10;99.90;;;24.04;39.46;96107.53;10350967;28;1805;-70
2022/08/08 16:11:31;;;;;;;;;;;25.00;99.90;;;23.92;40.15;96108.41;10349176;28;1861;-68
2022/08/08 16:16:56;;;;;;;;;;;24.80;99.90;;;23.76;40.52;96106.78;10349190;28;1922;-69
2022/08/08 16:21:59;;;;;;;;;;;24.60;99.90;;;23.69;40.69;96110.91;10363077;28;1869;-70
2022/08/08 16:27:03;;;;;;;;;;;24.50;99.90;;;23.55;41.59;96115.97;10361261;28;1852;-71
2022/08/08 16:32:12;;;;;;;;;;;24.40;99.90;;;23.52;41.79;96113.91;10374508;28;1844;-69
2022/08/08 16:37:25;;;;;;;;;;;24.30;99.90;;;23.49;41.33;96114.63;10350336;28;1919;-69
2022/08/08 16:42:29;;;;;;;;;;;24.20;99.90;;;23.39;40.78;96123.34;10352166;28;1958;-72
2022/08/08 16:47:37;;;;;;;;;;;24.20;99.90;;;23.31;41.34;96124.28;10356016;28;1804;-77
2022/08/08 16:52:46;;;;;;;;;;;24.10;99.90;;;23.26;42.14;96121.78;10372326;28;1821;-79
2022/08/08 16:58:09;;;;;;;;;;;24.00;99.90;;;23.17;43.14;96122.72;10375622;28;1956;-71
2022/08/08 17:03:18;;;;;;;;;;;23.90;99.90;;;23.08;42.86;96122.03;10352342;28;1880;-77
2022/08/08 17:08:41;;;;;;;;;;;23.80;99.90;;;23.00;43.51;96124.91;10359100;28;1699;-73
2022/08/08 17:13:45;;;;;;;;;;;23.80;99.90;;;22.94;43.60;96129.84;10371023;28;1977;-70
2022/08/08 17:19:03;;;;;;;;;;;23.70;99.90;;;22.87;43.36;96126.88;10382617;28;1843;-70
2022/08/08 17:24:06;;;;;;;;;;;23.70;99.90;;;22.79;43.22;96133.25;10366624;28;1890;-68
2022/08/08 17:29:23;;;;;;;;;;;23.50;99.90;;;22.69;43.76;96131.75;10368697;28;1847;-69
2022/08/08 17:34:27;;;;;;;;;;;23.50;99.90;;;22.69;44.18;96142.72;10357858;28;1914;-69
2022/08/08 17:39:50;;;;;;;;;;;23.40;99.90;;;22.61;44.92;96141.69;10375849;28;2150;-71
2022/08/08 17:45:14;;;;;;;;;;;23.30;99.90;;;22.53;45.82;96150.81;10373688;28;1829;-71
2022/08/08 17:50:25;;;;;;;;;;;23.40;99.90;;;22.44;45.87;96161.06;10357476;28;1809;-69
2022/08/08 17:55:28;;;;;;;;;;;23.20;99.90;;;22.30;46.52;96163.34;10372274;28;1919;-70
2022/08/08 18:00:51;;;;;;;;;;;23.10;99.90;;;22.19;47.02;96173.09;10370082;28;1801;-70
2022/08/08 18:05:58;;;;;;;;;;;23.00;99.90;;;22.08;47.55;96175.47;10351390;28;1912;-69
2022/08/08 18:11:01;;;;;;;;;;;23.00;99.90;;;21.99;47.33;96170.06;10362337;28;1848;-70
2022/08/08 18:16:04;;;;;;;;;;;22.80;99.90;;;21.83;47.88;96171.84;10363895;28;1915;-71
2022/08/08 18:21:08;;;;;;;;;;;22.70;99.90;;;21.73;48.92;96183.97;10348482;28;1867;-71
2022/08/08 18:26:31;;;;;;;;;;;22.60;99.90;;;21.55;48.89;96177.84;10343761;28;1828;-70
2022/08/08 18:31:35;;;;;;;;;;;22.50;99.90;;;21.37;49.78;96181.84;10363159;28;1756;-74
2022/08/08 18:36:41;;;;;;;;;;;22.30;99.90;;;21.34;49.84;96187.19;10352240;28;1946;-69
2022/08/08 18:41:46;;;;;;;;;;;22.20;99.90;;;21.18;50.20;96184.19;10348518;28;1822;-72
2022/08/08 18:47:05;;;;;;;;;;;22.00;99.90;;;20.94;51.30;96191.09;10367490;28;1860;-70
2022/08/08 18:52:08;;;;;;;;;;;21.90;99.90;;;20.87;51.81;96196.28;10349143;28;2010;-70
2022/08/08 18:57:25;;;;;;;;;;;21.80;99.90;;;20.70;52.31;96207.28;10347806;28;1918;-69
2022/08/08 19:02:28;;;;;;;;;;;21.60;99.90;;;20.74;53.06;96202.75;10354473;28;1837;-70
2022/08/08 19:07:34;;;;;;;;;;;21.60;99.90;;;20.51;53.47;96216.66;10365391;28;1969;-69
2022/08/08 19:12:39;;;;;;;;;;;21.40;99.90;;;20.38;54.85;96212.19;10363293;28;1867;-70
2022/08/08 19:17:55;;;;;;;;;;;21.40;99.90;;;20.31;55.21;96222.00;10360136;28;1914;-71
2022/08/08 19:23:18;;;;;;;;;;;21.20;99.90;;;20.27;55.04;96227.31;10375525;28;1868;-70
2022/08/08 19:28:23;;;;;;;;;;;21.10;99.90;;;20.27;58.40;96237.44;10347554;28;1876;-71
2022/08/08 19:33:27;;;;;;;;;;;21.10;99.90;;;20.08;56.92;96240.50;10343574;28;1912;-71
2022/08/08 19:38:51;;;;;;;;;;;21.00;99.90;;;20.27;57.49;96242.88;10362334;28;1970;-70
2022/08/08 19:43:54;;;;;;;;;;;21.00;99.90;;;20.33;57.85;96245.13;10375795;28;1840;-70
2022/08/08 19:49:06;;;;;;;;;;;21.00;99.90;;;20.22;58.43;96247.38;10360480;28;1819;-70
2022/08/08 19:54:12;;;;;;;;;;;21.00;99.90;;;20.11;60.28;96242.59;10355964;28;2197;-71
2022/08/08 19:59:16;;;;;;;;;;;20.90;99.90;;;19.91;58.40;96252.22;10365075;28;1991;-72
2022/08/08 20:04:24;;;;;;;;;;;20.80;99.90;;;19.81;58.57;96245.19;10363462;28;1854;-73
2022/08/08 20:09:27;;;;;;;;;;;20.70;99.90;;;20.36;61.09;96246.38;10372720;28;1835;-70
2022/08/08 20:14:35;;;;;;;;;;;20.80;99.90;;;20.11;57.96;96248.06;10349388;28;1914;-71
2022/08/08 20:19:44;;;;;;;;;;;20.90;99.90;;;20.03;59.48;96249.66;10364916;28;2057;-70
2022/08/08 20:24:49;;;;;;;;;;;20.90;99.90;;;19.87;61.81;96249.34;10367455;28;1749;-71
2022/08/08 20:29:52;;;;;;;;;;;20.80;99.90;;;19.67;61.55;96252.72;10352098;28;1910;-73
2022/08/08 20:35:02;;;;;;;;;;;20.60;99.90;;;19.48;60.09;96254.91;10355736;28;1918;-71
2022/08/08 20:40:05;;;;;;;;;;;20.50;99.90;;;19.22;62.49;96255.66;10379035;28;1820;-71
2022/08/08 20:45:09;;;;;;;;;;;20.20;99.90;;;19.10;63.22;96250.03;10366134;28;1884;-69
2022/08/08 20:50:13;;;;;;;;;;;20.10;99.90;;;18.95;64.61;96253.16;10371458;28;1773;-70
2022/08/08 20:55:20;;;;;;;;;;;19.90;99.90;;;18.87;64.25;96247.38;10380093;28;1977;-71
2022/08/08 21:00:27;;;;;;;;;;;19.90;99.90;;;18.93;64.70;96256.22;10353011;28;1797;-70
2022/08/08 21:05:31;;;;;;;;;;;19.80;99.90;;;18.88;65.05;96246.25;10351332;28;1912;-70
2022/08/08 21:10:54;;;;;;;;;;;19.70;99.90;;;18.76;65.13;96243.31;10370354;28;1831;-71
2022/08/08 21:15:58;;;;;;;;;;;19.70;99.90;;;18.61;66.86;96249.97;10344256;28;1918;-70
2022/08/08 21:21:20;;;;;;;;;;;19.60;99.90;;;18.56;66.21;96252.00;10359208;28;1851;-71
2022/08/08 21:26:43;;;;;;;;;;;19.50;99.90;;;18.44;67.63;96254.50;10363082;28;1831;-72
2022/08/08 21:31:46;;;;;;;;;;;19.50;99.90;;;18.36;67.23;96254.16;10342995;28;1825;-70
2022/08/08 21:37:00;;;;;;;;;;;19.30;99.90;;;18.18;67.99;96248.91;10369730;28;2001;-70
2022/08/08 21:42:13;;;;;;;;;;;19.20;99.90;;;18.28;67.33;96249.47;10363670;28;1796;-69
2022/08/08 21:47:16;;;;;;;;;;;19.20;99.90;;;18.19;68.48;96248.59;10368573;28;1914;-68
2022/08/08 21:52:39;;;;;;;;;;;19.10;99.90;;;18.21;68.31;96245.59;10348139;28;1888;-69
2022/08/08 21:58:03;;;;;;;;;;;19.00;99.90;;;18.04;69.81;96252.50;10362859;28;1910;-69
2022/08/08 22:03:15;;;;;;;;;;;18.90;99.90;;;17.85;71.11;96246.44;10361179;28;1883;-68
2022/08/08 22:08:19;;;;;;;;;;;18.90;99.90;;;17.74;71.76;96237.72;10350261;28;2230;-70
2022/08/08 22:13:26;;;;;;;;;;;18.80;99.90;;;17.67;72.54;96234.59;10362360;28;1908;-70
2022/08/08 22:18:48;;;;;;;;;;;18.70;99.90;;;17.54;73.01;96240.88;10362912;28;1914;-70
2022/08/08 22:23:54;;;;;;;;;;;18.60;99.90;;;17.43;74.36;96247.63;10370555;28;1856;-69
2022/08/08 22:28:58;;;;;;;;;;;18.50;99.90;;;17.26;74.67;96243.66;10362367;28;1857;-73
2022/08/08 22:34:21;;;;;;;;;;;18.30;99.90;;;17.23;75.96;96244.25;10373914;28;1828;-70
2022/08/08 22:39:29;;;;;;;;;;;18.30;99.90;;;17.19;75.94;96243.28;10357806;28;1903;-70
2022/08/08 22:44:53;;;;;;;;;;;18.20;99.90;;;17.14;76.81;96246.09;10369339;28;1846;-71
2022/08/08 22:49:56;;;;;;;;;;;18.20;99.90;;;17.06;77.45;96244.09;10356562;28;1781;-70
2022/08/08 22:55:03;;;;;;;;;;;18.10;99.90;;;17.02;78.07;96240.38;10370568;28;1810;-69
2022/08/08 23:00:09;;;;;;;;;;;18.10;99.90;;;17.00;78.66;96239.88;10375769;28;1880;-68
2022/08/08 23:05:15;;;;;;;;;;;17.90;99.90;;;17.02;78.19;96241.16;10357916;28;1800;-69
2022/08/08 23:10:23;;;;;;;;;;;18.00;99.90;;;17.01;79.25;96242.28;10371906;28;1800;-69
2022/08/08 23:15:28;;;;;;;;;;;18.00;99.90;;;17.03;79.13;96241.97;10371563;28;1977;-68
2022/08/08 23:20:52;;;;;;;;;;;18.00;99.90;;;17.03;79.41;96240.06;10373831;28;1864;-69
2022/08/08 23:25:56;;;;;;;;;;;18.00;99.90;;;16.89;79.23;96249.31;10356991;28;1840;-68
2022/08/08 23:31:01;;;;;;;;;;;17.90;99.90;;;16.90;81.07;96234.63;10370830;28;1875;-69
2022/08/08 23:36:05;;;;;;;;;;;17.80;99.90;;;16.84;82.37;96244.00;10361264;28;1981;-69
2022/08/08 23:41:11;;;;;;;;;;;17.80;99.90;;;16.75;82.86;96241.19;10370284;28;1954;-69
2022/08/08 23:46:27;;;;;;;;;;;17.70;99.90;;;16.64;84.12;96243.25;10372784;28;1842;-70
2022/08/08 23:51:51;;;;;;;;;;;17.70;99.90;;;16.71;85.15;96238.25;10347868;28;1878;-68
2022/08/08 23:57:09;;;;;;;;;;;17.60;99.90;;;16.85;84.83;96232.03;10371692;28;1930;-69
